עמוד ראשי
METAR-TAF:

METAR-TAF

שדות תעופה :

Kapolei, הוואי, ארצות הברית

קו רוחב: 21-18-30N, קו אורך: 158-04-05W, גובה: 10מטר

תצפית מזג אוויר נוכחית

הדו"ח נערך לפני 14דקות, בשעה 23:53 UTC
רוח 7קשר מכיוון מזרח, משתנה בין צפון-מזרח ו מזרח/דרום-מזרח
טמפרטורת 27 צלסיוס
לחות 58%
לחץ 1016 hPa
ראות: 16.1קילומטר
עננים פזורים בגובה 4100רגל
עננים בינוניים בגובה 5000רגל

METAR: PHJR 262353Z 08007KT 050V110 10SM SCT041 BKN050 27/18 A3001 RMK AO2 SLP169 T02720178 10283 20239 56012 $

זמן: 14:07 (00:07 UTC)

תחזית

הדו"ח נערך לפני 29דקות, בשעה 23:38 UTC
תחזית בתוקף מ 27 ב 00 UTC עד 27 ב 24 UTC
רוח 10קשר מכיוון מזרח/דרום-מזרח
ראות: 10קילומטר
עננים בינוניים בגובה 4000רגל
מ 27 ב 0200UTC
רוח 8קשר מכיוון מזרח/צפון-מזרח
ראות: 10קילומטר
עננים בינוניים בגובה 4000רגל
מ 27 ב 0500UTC
רוח 5קשר מכיוון צפון-מזרח
ראות: 10קילומטר
עננים פזורים בגובה 5000רגל
מ 27 ב 2000UTC
רוח 9קשר מכיוון מזרח/דרום-מזרח
ראות: 10קילומטר
עננים בינוניים בגובה 4000רגל

TAF: PHJR 262338Z 2700/2724 11010KT P6SM BKN040 FM270200 06008KT P6SM BKN040 FM270500 04005KT P6SM SCT050 FM272000 11009KT P6SM BKN040

תצפיות ותחזיות מזג אוויר לגבי יותר מ- 4,000 שדות תעופה ברחבי העולם. דוחות METAR ו- TAF.

התחנות הזמינות מסומנות בנקודות צהובות ואדומות על גבי המפה.

העבר את העכבר לנקודה הצבעונית על מנת לראות את שם התחנה.

לאחר מכן, לחץ כדי לראות את תוכן ואת תחזיות מזג האוויר.

כדי לשנות את המפה: לחץ על הכפתורים הירוקים עם הפלוס השחור כדי להתקרב; על הכפתור הירוק עם המקף כדי להתרחק; או בחיצים הירוקים למפות סמוכות.


METAR-TAF: